createdAt,value
2022-09-28T00:01:54.096Z,8.9
2022-09-28T00:04:53.976Z,8.9
2022-09-28T00:07:53.996Z,8.8
2022-09-28T00:10:54.003Z,8.7
2022-09-28T00:13:54.017Z,8.7
2022-09-28T00:16:54.056Z,8.7
2022-09-28T00:19:54.034Z,8.7
2022-09-28T00:22:54.045Z,8.7
2022-09-28T00:25:54.057Z,8.8
2022-09-28T00:28:54.069Z,8.8
2022-09-28T00:31:54.134Z,8.8
2022-09-28T00:34:54.121Z,8.8
2022-09-28T00:37:54.104Z,8.8
2022-09-28T00:40:54.174Z,8.7
2022-09-28T00:43:54.131Z,8.7
2022-09-28T00:46:54.142Z,8.6
2022-09-28T00:49:54.170Z,8.5
2022-09-28T00:52:54.187Z,8.4
2022-09-28T00:55:54.173Z,8.2
2022-09-28T00:58:54.193Z,8.1
2022-09-28T01:01:54.247Z,7.9
2022-09-28T01:04:54.212Z,7.8
2022-09-28T01:07:54.221Z,7.6
2022-09-28T01:10:54.263Z,7.5
2022-09-28T01:13:54.253Z,7.4
2022-09-28T01:16:54.261Z,7.3
2022-09-28T01:19:54.279Z,7.3
2022-09-28T01:22:54.285Z,7.2
2022-09-28T01:25:54.301Z,7.1
2022-09-28T01:28:54.346Z,7
2022-09-28T01:31:54.385Z,6.9
2022-09-28T01:34:54.345Z,6.8
2022-09-28T01:37:54.358Z,6.7
2022-09-28T01:40:54.436Z,6.6
2022-09-28T01:43:54.377Z,6.5
2022-09-28T01:46:54.431Z,6.4
2022-09-28T01:49:54.401Z,6.3
2022-09-28T01:52:54.418Z,6.2
2022-09-28T01:55:54.437Z,6.2
2022-09-28T01:58:54.444Z,6.2
2022-09-28T02:01:54.503Z,6.1
2022-09-28T02:04:54.493Z,6
2022-09-28T02:07:54.480Z,6
2022-09-28T02:10:54.494Z,5.9
2022-09-28T02:13:54.505Z,5.9
2022-09-28T02:16:54.516Z,5.9
2022-09-28T02:19:54.536Z,5.8
2022-09-28T02:22:54.574Z,5.6
2022-09-28T02:25:54.561Z,5.5
2022-09-28T02:28:54.576Z,5.5
2022-09-28T02:31:54.683Z,5.4
2022-09-28T02:34:54.611Z,5.3
2022-09-28T02:37:54.613Z,5.3
2022-09-28T02:40:54.691Z,5.3
2022-09-28T02:43:54.650Z,5.2
2022-09-28T02:46:54.670Z,5
2022-09-28T02:49:54.687Z,4.9
2022-09-28T02:52:54.690Z,4.8
2022-09-28T02:55:54.705Z,4.6
2022-09-28T02:58:54.740Z,4.5
2022-09-28T03:01:54.772Z,4.5
2022-09-28T03:04:54.749Z,4.5
2022-09-28T03:07:54.754Z,4.6
2022-09-28T03:10:54.771Z,4.7
2022-09-28T03:13:54.784Z,4.9
2022-09-28T03:16:54.823Z,5.1
2022-09-28T03:19:54.813Z,5.3
2022-09-28T03:23:12.624Z,5.5
2022-09-28T03:25:54.871Z,5.7
2022-09-28T03:28:54.863Z,5.8
2022-09-28T03:31:54.924Z,5.9
2022-09-28T03:34:54.918Z,6
2022-09-28T03:37:54.910Z,6.1
2022-09-28T03:40:54.987Z,6.2
2022-09-28T03:43:54.947Z,6.3
2022-09-28T03:46:54.966Z,6.4
2022-09-28T03:49:54.980Z,6.4
2022-09-28T03:52:55.021Z,6.5
2022-09-28T03:55:55.008Z,6.5
2022-09-28T03:58:55.029Z,6.5
2022-09-28T04:01:55.140Z,6.6
2022-09-28T04:04:55.054Z,6.6
2022-09-28T04:07:55.073Z,6.6
2022-09-28T04:10:55.115Z,6.6
2022-09-28T04:13:55.114Z,6.6
2022-09-28T04:16:55.129Z,6.7
2022-09-28T04:19:55.152Z,6.7
2022-09-28T04:22:55.168Z,6.7
2022-09-28T04:25:55.184Z,6.7
2022-09-28T04:28:55.233Z,6.7
2022-09-28T04:31:55.379Z,6.7
2022-09-28T04:34:55.249Z,6.7
2022-09-28T04:37:55.264Z,6.8
2022-09-28T04:40:55.308Z,6.7
2022-09-28T04:43:55.291Z,6.8
2022-09-28T04:46:55.340Z,6.8
2022-09-28T04:49:55.331Z,6.8
2022-09-28T04:52:55.350Z,6.9
2022-09-28T04:55:55.376Z,6.9
2022-09-28T04:58:55.388Z,6.9
2022-09-28T05:01:55.446Z,7
2022-09-28T05:04:55.452Z,7
2022-09-28T05:07:55.448Z,7.1
2022-09-28T05:10:55.463Z,7.1
2022-09-28T05:13:55.474Z,7.1
2022-09-28T05:16:55.541Z,7.1
2022-09-28T05:19:55.514Z,7.1
2022-09-28T05:22:55.560Z,7.2
2022-09-28T05:25:55.544Z,7.2
2022-09-28T05:28:55.563Z,7.2
2022-09-28T05:31:55.603Z,7.2
2022-09-28T05:34:55.585Z,7.2
2022-09-28T05:37:55.611Z,7.2
2022-09-28T05:40:55.752Z,7.3
2022-09-28T05:43:55.631Z,7.3
2022-09-28T05:46:55.639Z,7.3
2022-09-28T05:49:55.650Z,7.3
2022-09-28T05:52:55.676Z,7.3
2022-09-28T05:55:55.683Z,7.4
2022-09-28T05:58:55.723Z,7.4
2022-09-28T06:01:55.713Z,7.5
2022-09-28T06:04:55.714Z,7.5
2022-09-28T06:07:55.739Z,7.5
2022-09-28T06:10:55.751Z,7.5
2022-09-28T06:13:55.792Z,7.5
2022-09-28T06:16:55.866Z,7.5
2022-09-28T06:19:55.796Z,7.5
2022-09-28T06:22:55.817Z,7.6
2022-09-28T06:25:55.829Z,7.6
2022-09-28T06:28:55.847Z,7.6
2022-09-28T06:31:56.032Z,7.6
2022-09-28T06:34:56.523Z,7.6
2022-09-28T06:37:55.889Z,7.7
2022-09-28T06:40:56.202Z,7.7
2022-09-28T06:43:55.906Z,7.7
2022-09-28T06:46:55.919Z,7.7
2022-09-28T06:49:55.935Z,7.8
2022-09-28T06:52:55.987Z,7.8
2022-09-28T06:55:55.955Z,7.9
2022-09-28T06:58:55.969Z,7.9
2022-09-28T07:01:56.042Z,7.9
2022-09-28T07:04:55.984Z,7.9
2022-09-28T07:07:56.156Z,8
2022-09-28T07:10:56.032Z,8
2022-09-28T07:13:56.149Z,8.1
2022-09-28T07:17:12.080Z,8.1
2022-09-28T07:19:56.239Z,8.2
2022-09-28T07:22:56.658Z,8.2
2022-09-28T07:25:56.393Z,8.3
2022-09-28T07:28:56.170Z,8.4
2022-09-28T07:31:56.061Z,8.4
2022-09-28T07:34:58.086Z,8.5
2022-09-28T07:37:56.077Z,8.6
2022-09-28T07:40:56.103Z,8.7
2022-09-28T07:43:56.091Z,8.7
2022-09-28T07:46:56.143Z,8.7
2022-09-28T07:49:56.100Z,8.8
2022-09-28T07:52:56.105Z,8.8
2022-09-28T07:55:56.116Z,8.9
2022-09-28T07:58:56.126Z,8.9
2022-09-28T08:01:56.152Z,9
2022-09-28T08:04:56.170Z,9.1
2022-09-28T08:07:56.144Z,9.2
2022-09-28T08:13:56.171Z,9.5
2022-09-28T08:16:56.185Z,9.6
2022-09-28T08:19:56.183Z,9.6
2022-09-28T08:22:56.212Z,9.7
2022-09-28T08:25:56.203Z,9.8
2022-09-28T08:28:56.207Z,9.9
2022-09-28T08:31:59.513Z,10
2022-09-28T08:34:56.223Z,10.1
2022-09-28T08:37:56.218Z,10.2
2022-09-28T08:40:56.305Z,10.3
2022-09-28T08:43:56.240Z,10.4
2022-09-28T08:46:56.245Z,10.5
2022-09-28T08:49:56.258Z,10.5
2022-09-28T08:52:56.265Z,10.6
2022-09-28T08:55:56.266Z,10.7
2022-09-28T08:58:56.310Z,10.7
2022-09-28T09:01:57.797Z,10.8
2022-09-28T09:04:56.293Z,10.8
2022-09-28T09:07:56.305Z,10.8
2022-09-28T09:10:56.308Z,10.8
2022-09-28T09:13:56.316Z,10.8
2022-09-28T09:16:59.840Z,10.9
2022-09-28T09:19:56.331Z,10.8
2022-09-28T09:22:56.337Z,10.8
2022-09-28T09:25:56.345Z,10.8
2022-09-28T09:28:56.346Z,10.7
2022-09-28T09:31:56.353Z,10.6
2022-09-28T09:34:56.391Z,10.7
2022-09-28T09:37:58.441Z,10.7
2022-09-28T09:40:56.478Z,10.8
2022-09-28T09:43:56.388Z,10.9
2022-09-28T09:46:56.399Z,11
2022-09-28T09:49:56.407Z,11.2
2022-09-28T09:52:56.439Z,11.2
2022-09-28T09:55:56.423Z,11.3
2022-09-28T09:58:56.434Z,11.2
2022-09-28T10:01:56.441Z,11
2022-09-28T10:04:56.449Z,10.9
2022-09-28T10:07:56.457Z,10.8
2022-09-28T10:10:56.494Z,10.6
2022-09-28T10:13:56.469Z,10.6
2022-09-28T10:16:56.599Z,10.5
2022-09-28T10:19:56.497Z,10.4
2022-09-28T10:22:56.497Z,10.3
2022-09-28T10:25:56.506Z,10.3
2022-09-28T10:28:56.537Z,10.2
2022-09-28T10:31:56.524Z,10.1
2022-09-28T10:34:56.542Z,10.1
2022-09-28T10:37:56.544Z,10
2022-09-28T10:40:56.624Z,10
2022-09-28T10:43:58.148Z,9.9
2022-09-28T10:46:56.596Z,9.9
2022-09-28T10:49:56.575Z,9.9
2022-09-28T10:52:56.588Z,10
2022-09-28T10:55:56.599Z,10
2022-09-28T10:58:56.607Z,10.1
2022-09-28T11:01:56.614Z,10.2
2022-09-28T11:04:56.644Z,10.3
2022-09-28T11:07:56.627Z,10.4
2022-09-28T11:10:56.671Z,10.5
2022-09-28T11:13:56.641Z,10.6
2022-09-28T11:16:56.692Z,10.6
2022-09-28T11:19:56.664Z,10.6
2022-09-28T11:22:56.696Z,10.6
2022-09-28T11:25:56.685Z,10.7
2022-09-28T11:28:56.689Z,10.7
2022-09-28T11:31:56.703Z,10.7
2022-09-28T11:34:59.419Z,10.8
2022-09-28T11:37:56.721Z,10.9
2022-09-28T11:40:56.826Z,10.9
2022-09-28T11:43:56.732Z,11
2022-09-28T11:46:56.746Z,11.1
2022-09-28T11:49:56.760Z,11.2
2022-09-28T11:52:56.764Z,11.2
2022-09-28T11:55:56.776Z,11.3
2022-09-28T11:58:56.810Z,11.2
2022-09-28T12:01:56.937Z,11.1
2022-09-28T12:04:56.804Z,11
2022-09-28T12:07:56.815Z,10.8
2022-09-28T12:10:56.820Z,10.7
2022-09-28T12:13:56.828Z,10.6
2022-09-28T12:17:07.077Z,10.5
2022-09-28T12:19:56.844Z,10.3
2022-09-28T12:22:56.854Z,10.2
2022-09-28T12:25:56.872Z,10.1
2022-09-28T12:28:56.872Z,10.1
2022-09-28T12:31:56.878Z,10
2022-09-28T12:34:56.921Z,10
2022-09-28T12:37:56.894Z,10
2022-09-28T12:40:56.971Z,9.9
2022-09-28T12:43:56.907Z,9.9
2022-09-28T12:46:56.961Z,9.9
2022-09-28T12:50:36.858Z,9.8
2022-09-28T12:52:58.138Z,9.9
2022-09-28T12:55:56.948Z,9.9
2022-09-28T12:58:56.951Z,9.9
2022-09-28T13:01:57.035Z,9.9
2022-09-28T13:04:56.967Z,9.9
2022-09-28T13:07:56.978Z,9.9
2022-09-28T13:10:57.009Z,10
2022-09-28T13:13:56.993Z,10
2022-09-28T13:17:00.460Z,10.2
2022-09-28T13:19:57.019Z,10.2
2022-09-28T13:22:57.024Z,10.4
2022-09-28T13:25:57.027Z,10.5
2022-09-28T13:28:57.062Z,10.5
2022-09-28T13:31:57.054Z,10.6
2022-09-28T13:34:57.054Z,10.7
2022-09-28T13:37:57.065Z,10.8
2022-09-28T13:40:57.099Z,10.8
2022-09-28T13:43:57.211Z,10.8
2022-09-28T13:46:57.112Z,10.8
2022-09-28T13:49:57.098Z,10.7
2022-09-28T13:52:57.105Z,10.6
2022-09-28T13:55:57.118Z,10.6
2022-09-28T13:58:57.127Z,10.6
2022-09-28T14:01:57.193Z,10.6
2022-09-28T14:04:57.163Z,10.5
2022-09-28T14:07:57.290Z,10.5
2022-09-28T14:10:57.165Z,10.4
2022-09-28T14:13:57.158Z,10.3
2022-09-28T14:16:57.169Z,10.3
2022-09-28T14:19:57.179Z,10.3
2022-09-28T14:22:57.269Z,10.4
2022-09-28T14:25:57.191Z,10.4
2022-09-28T14:28:57.204Z,10.5
2022-09-28T14:31:57.210Z,10.6
2022-09-28T14:34:57.217Z,10.6
2022-09-28T14:37:57.223Z,10.7
2022-09-28T14:40:57.291Z,10.7
2022-09-28T14:43:57.238Z,10.7
2022-09-28T14:46:57.249Z,10.7
2022-09-28T14:49:57.314Z,10.8
2022-09-28T14:52:57.271Z,10.7
2022-09-28T14:55:57.272Z,10.8
2022-09-28T14:58:57.313Z,10.8
2022-09-28T15:01:57.289Z,10.9
2022-09-28T15:04:57.376Z,10.9
2022-09-28T15:07:57.299Z,10.9
2022-09-28T15:10:57.297Z,10.9
2022-09-28T15:13:57.306Z,10.9
2022-09-28T15:16:57.762Z,10.9
2022-09-28T15:19:57.319Z,10.8
2022-09-28T15:22:57.334Z,10.6
2022-09-28T15:25:57.346Z,10.6
2022-09-28T15:28:57.332Z,10.5
2022-09-28T15:31:57.332Z,10.4
2022-09-28T15:34:57.364Z,10.4
2022-09-28T15:37:57.342Z,10.3
2022-09-28T15:40:57.607Z,10.3
2022-09-28T15:43:57.380Z,10.3
2022-09-28T15:46:57.517Z,10.3
2022-09-28T15:49:57.362Z,10.2
2022-09-28T15:52:57.399Z,10.2
2022-09-28T15:55:57.369Z,10.2
2022-09-28T15:58:57.376Z,10.1
2022-09-28T16:01:57.388Z,10
2022-09-28T16:04:57.383Z,10.1
2022-09-28T16:07:57.386Z,10.1
2022-09-28T16:10:57.423Z,10.1
2022-09-28T16:13:57.409Z,10
2022-09-28T16:16:57.399Z,10
2022-09-28T16:19:57.397Z,10
2022-09-28T16:22:57.400Z,10
2022-09-28T16:25:57.406Z,9.9
2022-09-28T16:28:57.429Z,9.8
2022-09-28T16:31:57.410Z,9.8
2022-09-28T16:34:57.414Z,9.8
2022-09-28T16:37:57.411Z,9.7
2022-09-28T16:40:57.453Z,9.7
2022-09-28T16:43:57.412Z,9.7
2022-09-28T16:46:57.436Z,9.6
2022-09-28T16:49:57.416Z,9.6
2022-09-28T16:53:00.011Z,9.5
2022-09-28T16:55:57.445Z,9.5
2022-09-28T16:58:57.452Z,9.5
2022-09-28T17:01:57.538Z,9.4
2022-09-28T17:04:57.478Z,9.4
2022-09-28T17:07:57.451Z,9.4
2022-09-28T17:11:16.784Z,9.3
2022-09-28T17:13:57.470Z,9.3
2022-09-28T17:17:07.990Z,9.2
2022-09-28T17:19:57.488Z,9.2
2022-09-28T17:22:57.790Z,9.2
2022-09-28T17:25:57.495Z,9.2
2022-09-28T17:28:57.502Z,9.1
2022-09-28T17:31:57.503Z,9.2
2022-09-28T17:35:19.739Z,9.1
2022-09-28T17:37:57.528Z,9.1
2022-09-28T17:40:57.602Z,9.1
2022-09-28T17:43:57.546Z,9.1
2022-09-28T17:46:57.543Z,9.1
2022-09-28T17:49:57.575Z,9.1
2022-09-28T17:52:57.563Z,9.1
2022-09-28T17:55:57.568Z,9.1
2022-09-28T17:58:57.633Z,9
2022-09-28T18:02:01.597Z,9.1
2022-09-28T18:04:57.942Z,9
2022-09-28T18:07:57.600Z,9
2022-09-28T18:10:57.608Z,9
2022-09-28T18:13:57.617Z,9
2022-09-28T18:16:57.658Z,9
2022-09-28T18:19:57.635Z,9
2022-09-28T18:22:57.650Z,9
2022-09-28T18:25:57.647Z,8.9
2022-09-28T18:28:57.651Z,8.9
2022-09-28T18:31:57.654Z,8.9
2022-09-28T18:34:57.690Z,8.9
2022-09-28T18:37:57.671Z,8.9
2022-09-28T18:40:57.726Z,8.9
2022-09-28T18:43:57.693Z,8.9
2022-09-28T18:46:57.698Z,8.9
2022-09-28T18:49:57.702Z,8.8
2022-09-28T18:52:57.751Z,8.8
2022-09-28T18:55:57.720Z,8.8
2022-09-28T18:58:57.732Z,8.8
2022-09-28T19:01:57.807Z,8.8
2022-09-28T19:04:57.743Z,8.8
2022-09-28T19:07:57.750Z,8.7
2022-09-28T19:10:57.776Z,8.7
2022-09-28T19:13:57.766Z,8.7
2022-09-28T19:16:57.770Z,8.7
2022-09-28T19:19:57.777Z,8.7
2022-09-28T19:22:57.782Z,8.7
2022-09-28T19:25:57.784Z,8.7
2022-09-28T19:28:57.843Z,8.7
2022-09-28T19:31:57.810Z,8.7
2022-09-28T19:34:57.815Z,8.7
2022-09-28T19:37:57.837Z,8.7
2022-09-28T19:40:57.889Z,8.6
2022-09-28T19:43:57.872Z,8.6
2022-09-28T19:46:57.918Z,8.6
2022-09-28T19:49:57.912Z,8.6
2022-09-28T19:52:57.925Z,8.7
2022-09-28T19:55:57.937Z,8.7
2022-09-28T19:58:57.956Z,8.7
2022-09-28T20:01:58.026Z,8.7
2022-09-28T20:04:58.009Z,8.7
2022-09-28T20:07:58.029Z,8.7
2022-09-28T20:10:58.010Z,8.7
2022-09-28T20:13:58.013Z,8.7
2022-09-28T20:16:58.023Z,8.7
2022-09-28T20:19:58.017Z,8.7
2022-09-28T20:22:58.059Z,8.7
2022-09-28T20:25:58.051Z,8.7
2022-09-28T20:28:58.061Z,8.7
2022-09-28T20:31:58.076Z,8.7
2022-09-28T20:34:58.090Z,8.7
2022-09-28T20:37:58.101Z,8.8
2022-09-28T20:40:58.209Z,8.8
2022-09-28T20:44:00.513Z,8.8
2022-09-28T20:46:58.142Z,8.8
2022-09-28T20:49:58.150Z,8.8
2022-09-28T20:52:58.168Z,8.7
2022-09-28T20:55:58.185Z,8.7
2022-09-28T20:58:58.218Z,8.7
2022-09-28T21:01:58.258Z,8.6
2022-09-28T21:04:58.206Z,8.6
2022-09-28T21:07:58.217Z,8.5
2022-09-28T21:10:58.223Z,8.5
2022-09-28T21:13:58.241Z,8.5
2022-09-28T21:16:58.271Z,8.5
2022-09-28T21:19:58.267Z,8.5
2022-09-28T21:22:58.282Z,8.5
2022-09-28T21:25:58.287Z,8.5
2022-09-28T21:28:58.299Z,8.5
2022-09-28T21:31:58.316Z,8.4
2022-09-28T21:34:58.357Z,8.4
2022-09-28T21:37:58.339Z,8.4
2022-09-28T21:40:58.424Z,8.4
2022-09-28T21:43:58.374Z,8.4
2022-09-28T21:46:58.384Z,8.4
2022-09-28T21:49:58.395Z,8.4
2022-09-28T21:52:58.430Z,8.4
2022-09-28T21:55:58.408Z,8.4
2022-09-28T21:58:58.417Z,8.4
2022-09-28T22:01:58.501Z,8.3
2022-09-28T22:04:58.443Z,8.3
2022-09-28T22:07:58.456Z,8.3
2022-09-28T22:10:58.504Z,8.3
2022-09-28T22:13:58.489Z,8.3
2022-09-28T22:16:58.501Z,8.3
2022-09-28T22:19:58.523Z,8.3
2022-09-28T22:22:58.537Z,8.3
2022-09-28T22:25:58.546Z,8.3
2022-09-28T22:28:58.578Z,8.3
2022-09-28T22:31:58.573Z,8.3
2022-09-28T22:34:58.582Z,8.3
2022-09-28T22:37:58.600Z,8.3
2022-09-28T22:40:58.690Z,8.2
2022-09-28T22:43:58.622Z,8.2
2022-09-28T22:46:58.675Z,8.1
2022-09-28T22:49:58.643Z,8.1
2022-09-28T22:52:58.657Z,8
2022-09-28T22:55:58.671Z,7.9
2022-09-28T22:58:58.680Z,7.9
2022-09-28T23:01:58.735Z,7.8
2022-09-28T23:04:58.737Z,7.8
2022-09-28T23:07:58.726Z,7.7
2022-09-28T23:10:58.734Z,7.7
2022-09-28T23:13:58.752Z,7.6
2022-09-28T23:16:58.765Z,7.5
2022-09-28T23:19:58.783Z,7.5
2022-09-28T23:22:58.837Z,7.4
2022-09-28T23:25:58.806Z,7.4
2022-09-28T23:28:58.823Z,7.3
2022-09-28T23:31:58.838Z,7.3
2022-09-28T23:34:58.851Z,7.3
2022-09-28T23:37:58.859Z,7.2
2022-09-28T23:40:58.920Z,7.1
2022-09-28T23:43:58.882Z,7
2022-09-28T23:46:58.903Z,6.9
2022-09-28T23:49:58.908Z,6.8
2022-09-28T23:52:58.921Z,6.7
2022-09-28T23:55:58.940Z,6.6
2022-09-28T23:58:58.973Z,6.5
